Time;durP1;ratioP1;P1;durP2;ratioP2;P2;SDS_P1;SDS_P2;PMS_P1;PMS_P2;Temp;Humidity;BMP_temperature;BMP_pressure;BME280_temperature;BME280_humidity;BME280_pressure;Samples;Min_cycle;Max_cycle;Signal;HPM_P1;HPM_P2
2022/05/28 00:01:36;;;;;;;4.00;1.67;;;14.80;64.50;;;;;;5095934;28;20047;-59
2022/05/28 00:04:05;;;;;;;2.47;1.58;;;14.90;64.40;;;;;;5095790;28;20044;-59
2022/05/28 00:06:32;;;;;;;1.45;1.35;;;14.90;64.40;;;;;;5095187;28;20024;-60
2022/05/28 00:08:59;;;;;;;4.68;1.85;;;15.00;64.50;;;;;;5092365;28;20049;-59
2022/05/28 00:11:28;;;;;;;2.90;1.63;;;15.10;64.50;;;;;;5093785;28;20027;-59
2022/05/28 00:13:54;;;;;;;2.20;1.52;;;15.10;64.40;;;;;;5100839;28;20401;-59
2022/05/28 00:16:20;;;;;;;2.60;1.85;;;15.10;63.90;;;;;;5097962;28;20031;-59
2022/05/28 00:18:46;;;;;;;9.95;1.90;;;15.20;63.90;;;;;;5100276;28;20063;-58
2022/05/28 00:21:13;;;;;;;4.13;1.92;;;15.20;63.70;;;;;;5093479;28;20072;-58
2022/05/28 00:23:39;;;;;;;6.60;2.10;;;15.20;63.80;;;;;;5096315;28;20048;-58
2022/05/28 00:26:05;;;;;;;7.78;2.10;;;15.20;63.90;;;;;;5102649;28;20036;-58
2022/05/28 00:28:31;;;;;;;4.10;1.80;;;15.20;63.70;;;;;;5105336;28;20034;-58
2022/05/28 00:30:57;;;;;;;8.20;2.08;;;15.20;63.50;;;;;;5095656;28;20024;-60
2022/05/28 00:33:23;;;;;;;5.68;2.17;;;15.20;63.70;;;;;;5094689;28;20044;-58
2022/05/28 00:35:50;;;;;;;6.68;1.80;;;15.20;63.70;;;;;;5099751;28;20066;-59
2022/05/28 00:38:16;;;;;;;4.80;2.00;;;15.10;63.60;;;;;;5093139;28;20074;-59
2022/05/28 00:40:49;;;;;;;4.05;2.05;;;15.10;63.60;;;;;;5088890;28;20028;-59
2022/05/28 00:43:15;;;;;;;7.85;2.35;;;15.10;64.00;;;;;;5095397;28;20088;-58
2022/05/28 00:45:41;;;;;;;4.55;2.22;;;15.00;64.30;;;;;;5090256;28;20031;-59
2022/05/28 00:48:09;;;;;;;7.35;1.88;;;15.00;63.90;;;;;;5098694;28;20036;-61
2022/05/28 00:50:37;;;;;;;4.00;1.63;;;15.00;64.10;;;;;;5101186;28;20058;-59
2022/05/28 00:53:04;;;;;;;3.70;2.05;;;15.00;63.80;;;;;;5098083;28;20142;-59
2022/05/28 00:55:34;;;;;;;7.18;2.10;;;15.00;63.80;;;;;;5099626;28;20063;-59
2022/05/28 00:58:03;;;;;;;5.68;2.22;;;15.00;64.10;;;;;;5095120;28;20128;-59
2022/05/28 01:00:29;;;;;;;4.20;1.80;;;14.90;64.20;;;;;;5096754;28;20055;-59
2022/05/28 01:03:00;;;;;;;6.78;2.17;;;15.00;65.20;;;;;;5102034;28;20078;-59
2022/05/28 01:05:34;;;;;;;6.18;2.20;;;15.00;64.60;;;;;;5096554;28;20024;-60
2022/05/28 01:08:10;;;;;;;6.60;2.45;;;15.00;64.10;;;;;;5093823;28;20574;-59
2022/05/28 01:11:05;;;;;;;7.72;3.03;;;15.00;64.40;;;;;;5093136;28;20506;-59
2022/05/28 01:13:41;;;;;;;4.32;2.13;;;14.90;64.80;;;;;;5093978;28;20017;-59
2022/05/28 01:16:10;;;;;;;4.15;2.03;;;14.90;64.60;;;;;;5088391;28;20073;-59
2022/05/28 01:18:42;;;;;;;5.35;1.80;;;14.90;64.80;;;;;;5097078;28;20028;-58
2022/05/28 01:21:15;;;;;;;4.30;1.95;;;14.90;65.40;;;;;;5091599;28;20024;-58
2022/05/28 01:23:53;;;;;;;5.60;2.03;;;14.80;65.30;;;;;;5095050;28;20048;-59
2022/05/28 01:26:26;;;;;;;8.02;2.20;;;14.80;65.90;;;;;;5093387;28;20028;-59
2022/05/28 01:29:02;;;;;;;3.58;1.67;;;14.80;65.30;;;;;;5096881;28;20088;-58
2022/05/28 01:31:30;;;;;;;5.97;2.28;;;14.80;65.10;;;;;;5096763;28;20017;-58
2022/05/28 01:33:59;;;;;;;5.15;2.05;;;14.70;65.00;;;;;;5104644;28;20038;-58
2022/05/28 01:36:26;;;;;;;6.38;2.08;;;14.70;65.60;;;;;;5102686;28;20028;-58
2022/05/28 01:38:57;;;;;;;4.68;2.00;;;14.70;65.60;;;;;;5099741;28;20492;-58
2022/05/28 01:41:25;;;;;;;5.25;2.30;;;14.70;66.10;;;;;;5098904;28;20036;-58
2022/05/28 01:43:52;;;;;;;3.28;1.88;;;14.70;66.20;;;;;;5098700;28;20037;-58
2022/05/28 01:46:20;;;;;;;3.33;1.90;;;14.70;66.60;;;;;;5102521;28;20082;-59
2022/05/28 01:48:49;;;;;;;4.22;2.10;;;14.70;66.80;;;;;;5099687;28;20483;-58
2022/05/28 01:51:16;;;;;;;5.43;1.90;;;14.70;66.40;;;;;;5099044;28;20035;-59
2022/05/28 01:56:29;;;;;;;3.60;1.85;;;14.70;66.00;;;;;;5101934;28;20081;-59
2022/05/28 01:58:54;;;;;;;6.82;2.20;;;14.80;66.00;;;;;;5100273;28;20020;-59
2022/05/28 02:01:20;;;;;;;5.97;2.35;;;14.80;66.10;;;;;;5103922;28;20051;-58
2022/05/28 02:03:51;;;;;;;7.68;2.30;;;14.80;66.00;;;;;;5098265;28;20032;-59
2022/05/28 02:06:17;;;;;;;4.30;1.73;;;14.80;65.70;;;;;;5097928;28;20040;-59
2022/05/28 02:08:45;;;;;;;5.03;2.08;;;14.70;65.60;;;;;;5099981;28;20039;-59
2022/05/28 02:11:42;;;;;;;9.63;2.70;;;14.70;66.00;;;;;;5093932;28;20020;-58
2022/05/28 02:14:14;;;;;;;4.97;2.08;;;14.70;66.20;;;;;;5078637;28;20062;-59
2022/05/28 02:17:08;;;;;;;7.05;2.20;;;14.70;65.60;;;;;;5104433;28;20028;-59
2022/05/28 02:20:15;;;;;;;4.32;2.05;;;14.70;67.20;;;;;;5091074;28;20665;-60
2022/05/28 02:22:52;;;;;;;5.43;2.00;;;14.60;66.80;;;;;;5101676;28;20026;-59
2022/05/28 02:25:27;;;;;;;5.85;2.13;;;14.60;66.30;;;;;;5094664;28;20035;-58
2022/05/28 02:27:55;;;;;;;10.98;2.58;;;14.60;66.40;;;;;;5099951;28;20083;-60
2022/05/28 02:30:21;;;;;;;4.95;2.15;;;14.60;66.10;;;;;;5102147;28;20057;-59
2022/05/28 02:32:46;;;;;;;7.20;2.10;;;14.60;65.80;;;;;;5103449;28;20113;-59
2022/05/28 02:35:13;;;;;;;8.50;1.92;;;14.60;65.90;;;;;;5100310;28;20036;-59
2022/05/28 02:37:39;;;;;;;13.43;2.22;;;14.60;66.10;;;;;;5098277;28;20032;-59
2022/05/28 02:40:05;;;;;;;6.35;2.08;;;14.60;66.10;;;;;;5100570;28;20035;-60
2022/05/28 02:42:32;;;;;;;5.97;2.25;;;14.60;66.10;;;;;;5093949;28;20032;-60
2022/05/28 02:44:58;;;;;;;7.88;2.17;;;14.60;66.00;;;;;;5091540;28;20008;-59
2022/05/28 02:47:24;;;;;;;7.25;2.28;;;14.60;66.00;;;;;;5089941;28;20024;-60
2022/05/28 02:49:53;;;;;;;4.90;2.10;;;14.60;65.90;;;;;;5095286;28;20038;-60
2022/05/28 02:52:18;;;;;;;5.15;2.10;;;14.50;66.00;;;;;;5099073;28;20035;-59
2022/05/28 02:54:44;;;;;;;9.38;2.35;;;14.60;66.00;;;;;;5100586;28;20040;-59
2022/05/28 02:57:10;;;;;;;5.97;2.53;;;14.60;65.90;;;;;;5092262;28;20032;-61
2022/05/28 02:59:35;;;;;;;5.90;2.75;;;14.50;65.90;;;;;;5095349;28;20024;-60
2022/05/28 03:02:02;;;;;;;6.38;2.30;;;14.50;66.00;;;;;;5095546;28;20484;-59
2022/05/28 03:04:28;;;;;;;4.93;1.90;;;14.50;65.80;;;;;;5099002;28;20028;-59
2022/05/28 03:06:54;;;;;;;8.63;2.28;;;14.50;65.60;;;;;;5095275;28;20036;-59
2022/05/28 03:09:21;;;;;;;6.28;2.30;;;14.50;65.50;;;;;;5094639;28;20051;-59
2022/05/28 03:11:46;;;;;;;6.07;2.13;;;14.50;65.30;;;;;;5098052;28;20042;-60
2022/05/28 03:14:12;;;;;;;7.93;1.90;;;14.40;65.30;;;;;;5098480;28;20044;-60
2022/05/28 03:16:38;;;;;;;7.25;2.20;;;14.40;65.20;;;;;;5103551;28;20032;-59
2022/05/28 03:19:04;;;;;;;4.20;2.00;;;14.30;65.20;;;;;;5101824;28;20099;-59
2022/05/28 03:21:31;;;;;;;4.80;2.10;;;14.30;65.40;;;;;;5102344;28;20047;-60
2022/05/28 03:23:57;;;;;;;4.75;1.77;;;14.20;65.20;;;;;;5096071;28;20541;-59
2022/05/28 03:26:28;;;;;;;6.90;2.28;;;14.20;65.60;;;;;;5103305;28;20042;-58
2022/05/28 03:28:56;;;;;;;4.75;1.90;;;14.10;65.80;;;;;;5094264;28;20109;-58
2022/05/28 03:31:24;;;;;;;9.52;2.30;;;14.00;65.40;;;;;;5092404;28;20047;-59
2022/05/28 03:33:52;;;;;;;5.15;2.03;;;14.00;65.80;;;;;;5105267;28;20491;-59
2022/05/28 03:36:20;;;;;;;6.88;2.17;;;13.90;65.90;;;;;;5095245;28;20031;-59
2022/05/28 03:38:45;;;;;;;6.80;2.15;;;13.90;65.90;;;;;;5095519;28;20108;-59
2022/05/28 03:41:11;;;;;;;6.65;2.05;;;13.80;66.20;;;;;;5097337;28;20032;-59
2022/05/28 03:43:37;;;;;;;8.93;2.50;;;13.80;66.00;;;;;;5092381;28;20051;-59
2022/05/28 03:46:03;;;;;;;5.95;2.08;;;13.70;65.90;;;;;;5097643;28;20504;-60
2022/05/28 03:48:31;;;;;;;6.47;2.20;;;13.60;66.00;;;;;;5095795;28;20043;-59
2022/05/28 03:50:57;;;;;;;4.75;2.20;;;13.60;66.30;;;;;;5092807;28;20123;-59
2022/05/28 03:53:23;;;;;;;7.00;2.40;;;13.50;66.40;;;;;;5092306;28;20105;-59
2022/05/28 03:55:49;;;;;;;5.78;2.08;;;13.50;66.50;;;;;;5104530;28;20044;-59
2022/05/28 03:58:15;;;;;;;4.40;1.80;;;13.40;66.40;;;;;;5094227;28;20039;-60
2022/05/28 04:00:41;;;;;;;4.93;2.00;;;13.30;66.50;;;;;;5098811;28;20024;-58
2022/05/28 04:03:07;;;;;;;3.38;1.70;;;13.30;66.80;;;;;;5098212;28;20035;-58
2022/05/28 04:05:35;;;;;;;4.10;1.77;;;13.20;67.00;;;;;;5096923;28;20032;-59
2022/05/28 04:08:00;;;;;;;6.57;2.05;;;13.10;67.00;;;;;;5100878;28;20047;-59
2022/05/28 04:10:26;;;;;;;5.85;1.90;;;13.10;67.10;;;;;;5100294;28;20040;-59
2022/05/28 04:12:52;;;;;;;9.20;2.70;;;13.10;66.90;;;;;;5093764;28;20028;-59
2022/05/28 04:15:18;;;;;;;7.25;2.10;;;13.10;67.00;;;;;;5091514;28;20096;-59
2022/05/28 04:17:43;;;;;;;5.18;1.90;;;13.10;66.80;;;;;;5095303;28;20032;-59
2022/05/28 04:20:11;;;;;;;6.60;2.63;;;13.10;66.30;;;;;;5103281;28;20024;-59
2022/05/28 04:22:37;;;;;;;11.60;2.10;;;13.10;66.20;;;;;;5100860;28;20085;-60
2022/05/28 04:25:03;;;;;;;5.63;1.98;;;13.20;65.80;;;;;;5096342;28;20052;-59
2022/05/28 04:27:29;;;;;;;5.28;2.03;;;13.20;65.40;;;;;;5007624;28;20470;-59
2022/05/28 04:29:55;;;;;;;6.53;1.83;;;13.20;65.40;;;;;;5099417;28;20027;-59
2022/05/28 04:32:21;;;;;;;8.20;1.80;;;13.20;65.20;;;;;;5100926;28;20016;-61
2022/05/28 04:34:47;;;;;;;5.88;1.70;;;13.30;64.80;;;;;;5088776;28;20040;-59
2022/05/28 04:37:13;;;;;;;10.13;2.30;;;13.30;64.30;;;;;;5093534;28;20032;-59
2022/05/28 04:39:38;;;;;;;6.85;1.70;;;13.40;64.10;;;;;;5099927;28;20089;-58
2022/05/28 04:42:04;;;;;;;7.15;1.73;;;13.40;63.70;;;;;;5094387;28;20049;-59
2022/05/28 04:44:30;;;;;;;6.68;1.85;;;13.40;63.30;;;;;;5097037;28;20047;-58
2022/05/28 04:46:56;;;;;;;8.25;2.00;;;13.50;63.10;;;;;;5094766;28;20024;-59
2022/05/28 04:49:22;;;;;;;9.65;2.08;;;13.50;62.80;;;;;;5093878;28;20036;-60
2022/05/28 04:51:47;;;;;;;10.30;2.05;;;13.50;62.80;;;;;;5095101;28;20054;-59
2022/05/28 04:54:13;;;;;;;10.95;2.10;;;13.50;62.90;;;;;;5107922;28;20040;-59
2022/05/28 04:56:38;;;;;;;6.22;1.67;;;13.60;63.40;;;;;;5097518;28;20040;-59
2022/05/28 04:59:04;;;;;;;9.60;2.10;;;13.60;62.20;;;;;;5095388;28;20024;-59
2022/05/28 05:01:30;;;;;;;7.00;2.00;;;13.70;62.30;;;;;;5093576;28;20043;-58
2022/05/28 05:03:55;;;;;;;9.35;1.83;;;13.70;61.90;;;;;;5102987;28;20454;-61
2022/05/28 05:06:21;;;;;;;7.13;1.95;;;13.70;61.90;;;;;;5102891;28;20016;-59
2022/05/28 05:08:47;;;;;;;15.02;2.10;;;13.70;61.80;;;;;;5106180;28;20073;-58
2022/05/28 05:11:13;;;;;;;8.90;1.52;;;13.70;61.80;;;;;;5100760;28;20150;-59
2022/05/28 05:13:39;;;;;;;8.63;1.95;;;13.80;62.10;;;;;;5106437;28;20016;-59
2022/05/28 05:16:10;;;;;;;10.15;2.15;;;13.80;62.00;;;;;;5100799;28;20115;-59
2022/05/28 05:18:35;;;;;;;7.05;2.30;;;13.90;61.70;;;;;;5095356;28;20073;-60
2022/05/28 05:21:01;;;;;;;4.85;2.17;;;13.90;61.80;;;;;;5100206;28;20036;-60
2022/05/28 05:23:27;;;;;;;9.82;2.20;;;14.00;62.10;;;;;;5096243;28;20036;-58
2022/05/28 05:25:53;;;;;;;7.63;2.17;;;14.10;62.00;;;;;;5097441;28;20498;-61
2022/05/28 05:28:18;;;;;;;11.68;2.00;;;14.20;61.80;;;;;;5098052;28;20032;-59
2022/05/28 05:30:44;;;;;;;5.68;1.90;;;14.20;61.60;;;;;;5108098;28;20063;-59
2022/05/28 05:33:09;;;;;;;6.85;1.73;;;14.30;61.60;;;;;;5096008;28;20037;-58
2022/05/28 05:35:35;;;;;;;6.78;1.80;;;14.40;61.50;;;;;;5102368;28;20042;-58
2022/05/28 05:38:05;;;;;;;7.20;1.92;;;14.50;61.50;;;;;;5101204;28;20024;-58
2022/05/28 05:40:37;;;;;;;7.72;2.13;;;14.60;61.10;;;;;;5101054;28;20079;-59
2022/05/28 05:43:03;;;;;;;7.63;1.63;;;14.70;60.80;;;;;;5098695;28;20035;-59
2022/05/28 05:45:29;;;;;;;9.10;2.60;;;14.80;60.70;;;;;;5103468;28;20024;-59
2022/05/28 05:47:55;;;;;;;15.13;2.05;;;14.80;60.40;;;;;;5100528;28;20110;-59
2022/05/28 05:50:21;;;;;;;8.52;1.85;;;14.80;60.40;;;;;;5101124;28;20028;-59
2022/05/28 05:52:46;;;;;;;11.05;2.03;;;14.90;60.40;;;;;;5097409;28;20055;-59
2022/05/28 05:55:12;;;;;;;7.20;1.88;;;14.90;60.00;;;;;;5099959;28;20048;-59
2022/05/28 05:57:38;;;;;;;6.53;1.80;;;15.00;59.70;;;;;;5096934;28;20036;-58
2022/05/28 06:00:04;;;;;;;7.38;1.73;;;15.10;59.60;;;;;;5096809;28;20115;-61
2022/05/28 06:02:30;;;;;;;4.57;1.45;;;15.10;59.20;;;;;;5100091;28;20031;-58
2022/05/28 06:04:57;;;;;;;9.25;1.98;;;15.20;58.90;;;;;;5099297;28;20024;-59
2022/05/28 06:07:24;;;;;;;8.13;2.17;;;15.20;58.40;;;;;;5091421;28;20088;-59
2022/05/28 06:09:50;;;;;;;7.40;1.45;;;15.20;57.80;;;;;;5099219;28;20028;-59
2022/05/28 06:12:15;;;;;;;10.35;1.92;;;15.10;57.50;;;;;;5100357;28;20023;-59
2022/05/28 06:14:41;;;;;;;7.07;1.77;;;15.10;58.00;;;;;;5095072;28;20036;-59
2022/05/28 06:17:07;;;;;;;6.40;1.92;;;15.10;58.10;;;;;;5097050;28;20038;-59
2022/05/28 06:19:34;;;;;;;7.60;2.03;;;15.10;57.80;;;;;;5096994;28;20024;-59
2022/05/28 06:22:00;;;;;;;7.20;1.48;;;15.10;57.70;;;;;;5098665;28;20887;-61
2022/05/28 06:24:27;;;;;;;6.85;1.77;;;15.10;57.70;;;;;;5099701;28;20063;-60
2022/05/28 06:26:53;;;;;;;6.57;1.83;;;15.10;57.90;;;;;;5093370;28;20032;-60
2022/05/28 06:29:19;;;;;;;5.35;1.70;;;15.10;57.80;;;;;;5107105;28;20077;-59
2022/05/28 06:31:44;;;;;;;8.25;1.50;;;15.10;57.70;;;;;;5104491;28;20132;-61
2022/05/28 06:34:10;;;;;;;6.57;1.70;;;15.20;58.40;;;;;;5091975;28;20082;-59
2022/05/28 06:36:36;;;;;;;5.47;1.50;;;15.30;57.80;;;;;;5105398;28;20020;-59
2022/05/28 06:39:02;;;;;;;6.95;2.00;;;15.30;57.60;;;;;;5096566;28;20070;-59
2022/05/28 06:41:27;;;;;;;6.63;1.88;;;15.40;57.10;;;;;;5097832;28;20028;-59
2022/05/28 06:43:53;;;;;;;7.35;1.58;;;15.60;57.30;;;;;;5101579;28;20100;-59
2022/05/28 06:46:19;;;;;;;8.40;1.70;;;15.60;57.00;;;;;;5098843;28;20040;-60
2022/05/28 06:48:44;;;;;;;3.72;1.80;;;15.70;56.70;;;;;;5095535;28;20088;-59
2022/05/28 06:51:10;;;;;;;4.53;1.20;;;15.80;56.20;;;;;;5100223;28;20024;-59
2022/05/28 06:53:40;;;;;;;4.90;1.42;;;15.80;55.90;;;;;;5098757;28;20085;-59
2022/05/28 06:56:07;;;;;;;5.57;1.25;;;15.80;55.90;;;;;;5102404;28;20043;-59
2022/05/28 06:58:34;;;;;;;6.70;1.35;;;15.90;55.10;;;;;;5096478;28;20468;-59
2022/05/28 07:01:01;;;;;;;5.10;1.25;;;15.90;54.50;;;;;;5093787;28;20024;-59
2022/05/28 07:03:28;;;;;;;11.80;1.52;;;16.00;54.90;;;;;;5098816;28;20042;-59
2022/05/28 07:05:55;;;;;;;7.10;1.40;;;15.90;53.40;;;;;;5100655;28;20056;-61
2022/05/28 07:08:21;;;;;;;5.93;1.20;;;15.90;53.80;;;;;;5096874;28;20028;-61
2022/05/28 07:10:59;;;;;;;5.88;1.42;;;15.90;53.80;;;;;;5094837;28;20052;-59
2022/05/28 07:13:26;;;;;;;5.63;1.50;;;15.80;53.60;;;;;;5098503;28;20054;-59
2022/05/28 07:15:52;;;;;;;6.50;1.10;;;15.80;53.80;;;;;;5093605;28;20066;-59
2022/05/28 07:18:19;;;;;;;7.20;1.13;;;15.80;54.10;;;;;;5104686;28;20027;-60
2022/05/28 07:20:45;;;;;;;8.95;1.70;;;15.80;53.80;;;;;;5097633;28;20027;-59
2022/05/28 07:23:18;;;;;;;5.05;1.20;;;15.80;53.80;;;;;;5098623;28;20044;-59
2022/05/28 07:25:44;;;;;;;4.97;1.20;;;15.90;54.00;;;;;;5087810;28;20032;-60
2022/05/28 07:28:27;;;;;;;4.13;1.27;;;16.00;53.70;;;;;;5103398;28;20019;-60
2022/05/28 07:30:57;;;;;;;2.65;0.95;;;16.10;53.10;;;;;;5099189;28;20042;-61
2022/05/28 07:33:27;;;;;;;4.20;1.00;;;16.20;53.70;;;;;;5097166;28;20032;-59
2022/05/28 07:35:54;;;;;;;3.95;0.90;;;16.30;53.70;;;;;;5101373;28;20063;-59
2022/05/28 07:38:20;;;;;;;5.05;1.02;;;16.40;53.50;;;;;;5099541;28;20675;-59
2022/05/28 07:40:47;;;;;;;2.75;0.88;;;16.50;53.20;;;;;;5098137;28;20024;-61
2022/05/28 07:43:14;;;;;;;3.78;1.20;;;16.60;53.00;;;;;;5096401;28;20108;-59
2022/05/28 07:45:43;;;;;;;5.13;1.25;;;16.70;52.80;;;;;;5100041;28;20051;-59
2022/05/28 07:48:09;;;;;;;8.27;1.30;;;16.70;52.70;;;;;;5096365;28;20036;-59
2022/05/28 07:50:35;;;;;;;3.42;1.05;;;16.80;51.00;;;;;;5101838;28;20028;-59
2022/05/28 07:53:01;;;;;;;3.47;0.98;;;16.80;51.80;;;;;;5097768;28;20039;-59
2022/05/28 07:55:28;;;;;;;5.88;1.02;;;16.80;51.80;;;;;;5104884;28;20083;-60
2022/05/28 07:57:54;;;;;;;5.05;1.02;;;16.90;52.10;;;;;;5097714;28;20093;-59
2022/05/28 08:00:20;;;;;;;3.08;0.70;;;16.90;51.80;;;;;;5097344;28;21972;-60
2022/05/28 08:02:45;;;;;;;6.97;1.17;;;17.00;51.10;;;;;;5097605;28;20079;-60
2022/05/28 08:05:12;;;;;;;3.22;0.80;;;17.00;50.70;;;;;;5100295;28;20039;-59
2022/05/28 08:07:37;;;;;;;4.25;0.80;;;17.10;50.50;;;;;;5097801;28;20076;-59
2022/05/28 08:10:04;;;;;;;2.28;0.88;;;17.10;50.70;;;;;;5095589;28;20090;-59
2022/05/28 08:12:30;;;;;;;2.58;0.80;;;17.20;50.70;;;;;;5097537;28;20110;-59
2022/05/28 08:14:56;;;;;;;5.28;1.10;;;17.30;50.60;;;;;;5105710;28;20032;-60
2022/05/28 08:17:22;;;;;;;7.18;1.25;;;17.50;50.40;;;;;;5089881;28;20084;-59
2022/05/28 08:19:47;;;;;;;3.03;0.88;;;17.60;50.40;;;;;;5100951;28;20028;-61
2022/05/28 08:24:58;;;;;;;6.53;1.13;;;17.80;49.90;;;;;;5100034;28;20054;-59
2022/05/28 08:27:23;;;;;;;3.42;1.00;;;17.80;49.50;;;;;;5049791;28;20043;-59
2022/05/28 08:29:49;;;;;;;3.40;1.00;;;17.80;49.60;;;;;;5102166;28;20448;-60
2022/05/28 08:32:18;;;;;;;3.55;1.02;;;17.70;48.60;;;;;;5100426;28;20050;-59
2022/05/28 08:34:44;;;;;;;3.38;0.90;;;17.70;49.40;;;;;;5107685;28;20027;-59
2022/05/28 08:37:13;;;;;;;4.18;1.10;;;17.70;49.10;;;;;;5106213;28;20044;-60
2022/05/28 08:39:39;;;;;;;4.82;1.23;;;17.60;50.00;;;;;;5101270;28;20036;-59
2022/05/28 08:42:09;;;;;;;8.38;1.40;;;17.70;49.30;;;;;;5104424;28;20058;-59
2022/05/28 08:44:39;;;;;;;5.13;1.30;;;17.60;48.20;;;;;;5105783;28;20027;-59
2022/05/28 08:47:24;;;;;;;4.45;1.10;;;17.60;48.50;;;;;;5101957;28;20020;-59
2022/05/28 08:49:51;;;;;;;4.28;1.13;;;17.70;48.40;;;;;;5098295;28;20036;-60
2022/05/28 08:52:23;;;;;;;1.38;0.70;;;17.80;49.50;;;;;;5097376;28;20032;-60
2022/05/28 08:54:59;;;;;;;2.60;0.70;;;17.90;47.60;;;;;;5097829;28;20042;-60
2022/05/28 08:57:43;;;;;;;6.90;1.30;;;18.00;47.50;;;;;;5102559;28;20020;-61
2022/05/28 09:00:13;;;;;;;2.30;0.80;;;18.10;46.70;;;;;;5096644;28;20041;-59
2022/05/28 09:02:44;;;;;;;5.93;1.10;;;18.30;47.80;;;;;;5102609;28;20039;-60
2022/05/28 09:05:30;;;;;;;2.47;0.73;;;18.40;47.40;;;;;;5097682;28;20028;-60
2022/05/28 09:08:00;;;;;;;3.97;0.90;;;18.60;46.90;;;;;;5098903;28;20079;-60
2022/05/28 09:10:29;;;;;;;3.00;0.82;;;18.70;45.70;;;;;;5091041;28;20047;-59
2022/05/28 09:13:02;;;;;;;5.78;0.85;;;18.80;45.10;;;;;;5107170;28;20024;-59
2022/05/28 09:15:28;;;;;;;4.68;1.00;;;18.80;43.70;;;;;;5101987;28;20043;-59
2022/05/28 09:17:56;;;;;;;6.63;1.00;;;18.70;45.10;;;;;;5100156;28;20020;-59
2022/05/28 09:20:52;;;;;;;3.45;0.70;;;18.80;44.10;;;;;;5100199;28;20047;-59
2022/05/28 09:23:18;;;;;;;3.60;1.65;;;18.70;43.60;;;;;;5081680;28;20046;-59
2022/05/28 09:25:46;;;;;;;5.88;1.58;;;18.60;44.10;;;;;;5087193;28;20087;-60
2022/05/28 09:28:26;;;;;;;3.67;1.00;;;18.60;44.80;;;;;;5088878;28;20039;-60
2022/05/28 09:30:58;;;;;;;3.75;1.38;;;18.60;44.50;;;;;;5095599;28;20031;-60
2022/05/28 09:33:33;;;;;;;3.28;1.00;;;18.60;44.30;;;;;;5100592;28;20032;-60
2022/05/28 09:36:08;;;;;;;6.65;1.00;;;18.60;44.90;;;;;;5098189;28;20066;-60
2022/05/28 09:38:52;;;;;;;4.30;1.10;;;18.60;45.40;;;;;;5098930;28;20064;-60
2022/05/28 09:41:37;;;;;;;5.80;0.85;;;18.70;45.50;;;;;;5096748;28;20090;-59
2022/05/28 09:44:02;;;;;;;2.70;0.82;;;18.80;43.20;;;;;;5092245;28;20037;-60
2022/05/28 09:46:43;;;;;;;2.38;1.05;;;18.70;44.10;;;;;;5101184;28;20051;-60
2022/05/28 09:49:20;;;;;;;3.63;0.90;;;18.70;43.10;;;;;;5094656;28;20046;-60
2022/05/28 09:52:05;;;;;;;2.47;0.80;;;18.60;43.90;;;;;;5099738;28;20028;-59
2022/05/28 09:54:33;;;;;;;5.35;0.85;;;18.60;43.50;;;;;;5102258;28;20025;-61
2022/05/28 09:57:11;;;;;;;3.10;1.08;;;18.50;43.80;;;;;;5093087;28;20049;-60
2022/05/28 09:59:43;;;;;;;2.17;0.65;;;18.50;43.60;;;;;;5102643;28;20023;-62
2022/05/28 10:02:40;;;;;;;5.43;1.23;;;18.30;43.30;;;;;;5104575;28;20126;-59
2022/05/28 10:05:20;;;;;;;2.28;0.68;;;18.20;43.90;;;;;;5097987;28;20764;-60
2022/05/28 10:07:49;;;;;;;4.47;1.13;;;18.10;42.70;;;;;;5098824;28;20037;-60
2022/05/28 10:10:19;;;;;;;5.00;0.98;;;18.20;44.00;;;;;;5095379;28;20545;-60
2022/05/28 10:12:44;;;;;;;3.53;0.90;;;18.20;44.90;;;;;;5100110;28;20043;-60
2022/05/28 10:15:14;;;;;;;3.55;0.88;;;18.40;44.90;;;;;;5095804;28;20044;-60
2022/05/28 10:17:43;;;;;;;3.33;1.15;;;18.60;45.10;;;;;;5096925;28;20051;-60
2022/05/28 10:20:17;;;;;;;3.00;1.00;;;18.70;44.20;;;;;;5101416;28;20028;-59
2022/05/28 10:22:46;;;;;;;2.22;0.90;;;18.80;44.00;;;;;;5095105;28;20080;-59
2022/05/28 10:25:31;;;;;;;4.68;0.93;;;18.90;43.50;;;;;;5095614;28;20040;-59
2022/05/28 10:27:57;;;;;;;3.45;0.88;;;19.00;42.00;;;;;;5093435;28;20020;-59
2022/05/28 10:30:35;;;;;;;2.65;0.82;;;19.00;43.50;;;;;;5090516;28;20042;-59
2022/05/28 10:33:23;;;;;;;6.28;0.80;;;19.20;42.20;;;;;;5096267;28;20044;-60
2022/05/28 10:35:49;;;;;;;2.90;0.82;;;18.90;41.70;;;;;;5087020;28;20034;-59
2022/05/28 10:38:20;;;;;;;7.20;1.50;;;18.90;43.30;;;;;;5098837;28;20075;-61
2022/05/28 10:40:52;;;;;;;5.55;1.20;;;18.90;43.30;;;;;;5089055;28;20033;-61
2022/05/28 10:43:38;;;;;;;4.10;0.80;;;19.00;44.20;;;;;;5092793;28;20065;-61
2022/05/28 10:46:13;;;;;;;6.93;1.25;;;19.00;43.40;;;;;;5101034;28;20106;-60
2022/05/28 10:49:18;;;;;;;5.82;1.00;;;18.90;42.80;;;;;;5094976;28;20031;-60
2022/05/28 10:51:43;;;;;;;3.75;1.00;;;18.90;42.70;;;;;;5073870;28;20051;-60
2022/05/28 10:54:32;;;;;;;3.03;0.82;;;18.90;44.50;;;;;;5101525;28;20024;-59
2022/05/28 10:57:32;;;;;;;4.32;1.10;;;19.00;44.80;;;;;;5097816;28;20028;-61
2022/05/28 11:00:04;;;;;;;3.63;1.10;;;19.20;43.40;;;;;;5087904;28;20090;-59
2022/05/28 11:02:33;;;;;;;3.88;1.45;;;19.40;42.20;;;;;;5089861;28;20035;-60
2022/05/28 11:05:05;;;;;;;7.35;1.10;;;19.40;42.50;;;;;;5097729;28;20227;-59
2022/05/28 11:07:48;;;;;;;5.18;1.40;;;19.40;42.00;;;;;;5093816;28;20024;-59
2022/05/28 11:10:52;;;;;;;4.35;1.10;;;19.40;40.80;;;;;;5090520;28;20126;-59
2022/05/28 11:13:42;;;;;;;5.68;1.30;;;19.30;41.60;;;;;;5098136;28;20028;-59
2022/05/28 11:16:38;;;;;;;3.35;0.95;;;19.30;42.00;;;;;;5090732;28;20036;-59
2022/05/28 11:20:08;;;;;;;5.05;0.73;;;19.20;41.70;;;;;;5076856;28;20057;-59
2022/05/28 11:22:58;;;;;;;4.70;1.30;;;19.30;42.30;;;;;;4991381;28;20042;-62
2022/05/28 11:26:10;;;;;;;2.67;1.00;;;19.30;42.00;;;;;;4988162;28;20034;-59
2022/05/28 11:28:35;;;;;;;4.47;0.98;;;19.30;41.20;;;;;;4960097;28;20039;-60
2022/05/28 11:31:27;;;;;;;3.58;1.00;;;19.40;42.20;;;;;;4957391;28;20840;-60
2022/05/28 11:33:56;;;;;;;3.15;1.02;;;19.40;41.70;;;;;;4958838;28;20062;-60
2022/05/28 11:36:36;;;;;;;4.93;1.20;;;19.30;42.00;;;;;;4954106;29;20136;-59
2022/05/28 11:39:15;;;;;;;7.45;0.82;;;19.30;42.60;;;;;;4961369;28;20043;-59
2022/05/28 11:41:48;;;;;;;4.65;1.00;;;19.30;42.40;;;;;;4958989;28;20260;-60
2022/05/28 11:44:25;;;;;;;2.03;1.00;;;19.30;42.70;;;;;;4959431;29;20035;-60
2022/05/28 11:47:09;;;;;;;3.03;0.82;;;19.30;43.40;;;;;;4956673;28;20298;-60
2022/05/28 11:52:46;;;;;;;3.83;1.07;;;19.30;42.60;;;;;;4980193;28;20076;-60
2022/05/28 11:55:20;;;;;;;2.63;0.98;;;19.30;42.20;;;;;;5035596;28;20372;-60
2022/05/28 11:57:57;;;;;;;3.60;1.00;;;19.40;41.60;;;;;;5041387;28;20044;-59
2022/05/28 12:00:25;;;;;;;5.15;1.10;;;19.50;42.30;;;;;;5037980;28;20034;-59
2022/05/28 12:03:19;;;;;;;4.35;1.25;;;19.60;42.10;;;;;;5036372;28;20056;-59
2022/05/28 12:05:57;;;;;;;4.90;0.98;;;19.70;42.90;;;;;;5073607;28;20043;-60
2022/05/28 12:08:30;;;;;;;4.72;1.05;;;19.90;42.00;;;;;;5098796;28;20051;-59
2022/05/28 12:11:01;;;;;;;3.50;0.93;;;20.00;42.20;;;;;;5090667;28;20062;-60
2022/05/28 12:13:45;;;;;;;2.67;0.90;;;20.10;41.20;;;;;;5093530;28;20116;-60
2022/05/28 12:16:21;;;;;;;5.33;0.80;;;20.20;41.00;;;;;;5096544;28;20040;-59
2022/05/28 12:19:22;;;;;;;4.30;1.17;;;20.30;42.40;;;;;;5100375;28;20673;-60
2022/05/28 12:21:48;;;;;;;3.53;0.85;;;20.40;41.20;;;;;;5095023;28;20062;-59
2022/05/28 12:24:20;;;;;;;5.88;1.30;;;20.60;41.00;;;;;;5095275;28;20056;-60
2022/05/28 12:29:45;;;;;;;4.78;1.05;;;20.90;39.30;;;;;;5091599;28;20035;-60
2022/05/28 12:32:13;;;;;;;4.57;0.90;;;21.00;40.00;;;;;;5096041;28;20790;-60
2022/05/28 12:35:10;;;;;;;6.50;1.15;;;21.10;40.90;;;;;;5089855;28;20044;-60
2022/05/28 12:37:35;;;;;;;2.75;0.93;;;21.20;39.50;;;;;;5075983;28;20025;-60
2022/05/28 12:40:21;;;;;;;5.38;1.10;;;21.40;39.50;;;;;;5096479;28;20038;-60
2022/05/28 12:42:47;;;;;;;2.58;0.80;;;21.50;37.80;;;;;;5090711;28;20087;-61
2022/05/28 12:45:42;;;;;;;3.97;1.27;;;21.60;38.90;;;;;;5096540;28;20058;-61
2022/05/28 12:48:23;;;;;;;5.50;1.10;;;21.80;39.10;;;;;;5095625;28;20072;-59
2022/05/28 12:51:04;;;;;;;6.28;1.40;;;22.00;38.50;;;;;;5092164;28;20096;-60
2022/05/28 12:53:47;;;;;;;5.47;1.30;;;22.30;38.80;;;;;;5099476;28;20120;-60
2022/05/28 12:56:34;;;;;;;2.72;0.90;;;22.50;37.40;;;;;;5093304;28;20074;-59
2022/05/28 12:59:22;;;;;;;2.80;0.68;;;22.60;36.40;;;;;;5098065;28;20710;-60
2022/05/28 13:01:57;;;;;;;3.45;1.20;;;22.60;33.60;;;;;;5098198;28;20066;-60
2022/05/28 13:04:28;;;;;;;3.22;1.00;;;22.60;35.70;;;;;;5099884;28;20082;-60
2022/05/28 13:07:00;;;;;;;3.45;1.05;;;22.60;36.70;;;;;;5094797;28;20027;-60
2022/05/28 13:09:28;;;;;;;3.08;1.10;;;22.50;35.50;;;;;;5095157;28;20043;-60
2022/05/28 13:11:57;;;;;;;4.40;1.20;;;22.40;36.20;;;;;;5089864;28;20028;-60
2022/05/28 13:14:32;;;;;;;3.45;1.00;;;22.30;36.20;;;;;;5100403;28;20035;-60
2022/05/28 13:17:27;;;;;;;15.20;1.63;;;22.20;35.10;;;;;;5092631;28;20032;-60